Accra, Ghana
Current Conditions -  °F | °C
As of 12:00 PM on Monday 20 Oct 2014 (Local Time) from DXXX Reporting Station
Scattered Clouds Scattered Clouds  
Wind Chill: 88°   Ceiling: Unl
Heat Index: 98°   Visibility: 6mi
Dew Point: 75°   Wind: 10mph
Humidity: 66%   Direction: 190°S
Pressure: 29.91"   Gusts: NA
Location:  5.56°N, 0.2°W
Report Text: DXXX 201200Z 19009KT 160V230 9999 SCT015 31/24 Q1013 NOSIG
Loading
Personal Weather Stations






























Interactive Weather Map
Tropical Storm Tracking
New forecast layout! Learn more

10-Day Weather Forecast

Advertisements
Track Severe Weather on mobile